Time;durP1;ratioP1;P1;durP2;ratioP2;P2;SDS_P1;SDS_P2;PMS_P1;PMS_P2;Temp;Humidity;BMP_temperature;BMP_pressure;BME280_temperature;BME280_humidity;BME280_pressure;Samples;Min_cycle;Max_cycle;Signal;HPM_P1;HPM_P2
2022/04/28 00:01:59;;;;;;;3.97;1.90;;;9.80;99.90;;;;;;5037196;28;20402;-74
2022/04/28 00:04:25;;;;;;;4.30;2.42;;;9.80;99.90;;;;;;5061523;28;20048;-76
2022/04/28 00:06:51;;;;;;;6.40;2.50;;;9.80;99.90;;;;;;5077605;28;20041;-76
2022/04/28 00:09:17;;;;;;;6.53;2.17;;;9.80;99.90;;;;;;5064382;28;20059;-76
2022/04/28 00:11:42;;;;;;;3.25;1.90;;;9.80;99.90;;;;;;5076827;28;20052;-77
2022/04/28 00:14:08;;;;;;;4.28;2.30;;;9.80;99.90;;;;;;5050283;28;20032;-76
2022/04/28 00:16:37;;;;;;;5.40;2.15;;;9.80;99.90;;;;;;5061246;28;20084;-76
2022/04/28 00:19:03;;;;;;;5.55;2.20;;;9.80;99.90;;;;;;5033726;28;20056;-77
2022/04/28 00:21:29;;;;;;;3.88;2.03;;;9.80;99.90;;;;;;5061695;28;20505;-76
2022/04/28 00:23:55;;;;;;;5.63;2.30;;;9.80;99.90;;;;;;5059684;28;20074;-76
2022/04/28 00:26:21;;;;;;;3.78;2.38;;;9.80;99.90;;;;;;5033743;28;20056;-77
2022/04/28 00:28:47;;;;;;;8.50;2.50;;;9.80;99.90;;;;;;5060219;28;20044;-76
2022/04/28 00:31:13;;;;;;;6.18;2.25;;;9.80;99.90;;;;;;5056443;28;20048;-76
2022/04/28 00:33:42;;;;;;;7.70;2.08;;;9.80;99.90;;;;;;5041328;28;20048;-76
2022/04/28 00:36:09;;;;;;;4.55;2.22;;;9.80;99.90;;;;;;5057920;28;20052;-76
2022/04/28 00:38:35;;;;;;;4.72;2.15;;;9.80;99.90;;;;;;5076581;28;20481;-77
2022/04/28 00:41:00;;;;;;;6.97;2.63;;;9.80;99.90;;;;;;5042425;28;20047;-78
2022/04/28 00:43:29;;;;;;;5.88;2.50;;;9.80;99.90;;;;;;5050376;28;20436;-76
2022/04/28 00:45:56;;;;;;;6.32;2.97;;;9.70;99.90;;;;;;5060615;28;20056;-76
2022/04/28 00:51:08;;;;;;;5.28;2.30;;;9.70;99.90;;;;;;5060739;28;20060;-76
2022/04/28 00:54:00;;;;;;;7.82;2.38;;;9.80;99.90;;;;;;5060512;28;20047;-76
2022/04/28 00:56:27;;;;;;;7.78;2.90;;;9.80;99.90;;;;;;5048773;28;20056;-77
2022/04/28 00:58:55;;;;;;;6.15;2.40;;;9.70;99.90;;;;;;5075471;28;20082;-77
2022/04/28 01:01:21;;;;;;;6.30;2.47;;;9.70;99.90;;;;;;5042429;28;20049;-76
2022/04/28 01:03:47;;;;;;;6.80;2.53;;;9.70;99.90;;;;;;5044400;28;20053;-77
2022/04/28 01:06:13;;;;;;;8.15;3.00;;;9.70;99.90;;;;;;5059735;28;20067;-77
2022/04/28 01:08:40;;;;;;;6.35;2.78;;;9.70;99.90;;;;;;5042449;28;20053;-75
2022/04/28 01:11:06;;;;;;;4.20;2.53;;;9.60;99.90;;;;;;5060915;28;20091;-76
2022/04/28 01:13:32;;;;;;;5.22;2.40;;;9.70;99.90;;;;;;5077095;28;20079;-76
2022/04/28 01:15:58;;;;;;;6.75;2.50;;;9.70;99.90;;;;;;5065226;28;20135;-76
2022/04/28 01:18:24;;;;;;;7.15;2.50;;;9.60;99.90;;;;;;5040144;28;20059;-76
2022/04/28 01:20:50;;;;;;;7.45;2.53;;;9.60;99.90;;;;;;5049552;28;20485;-76
2022/04/28 01:23:18;;;;;;;7.25;2.17;;;9.60;99.90;;;;;;5061281;28;20106;-76
2022/04/28 01:25:44;;;;;;;6.53;2.30;;;9.50;99.90;;;;;;5059353;28;20456;-78
2022/04/28 01:28:11;;;;;;;6.55;2.58;;;9.60;99.90;;;;;;5061043;28;20101;-76
2022/04/28 01:30:37;;;;;;;5.82;3.15;;;9.50;99.90;;;;;;5059943;28;20471;-75
2022/04/28 01:33:04;;;;;;;5.22;1.98;;;9.50;99.90;;;;;;5041648;28;20697;-77
2022/04/28 01:35:31;;;;;;;6.15;2.15;;;9.50;99.90;;;;;;5065283;28;20119;-78
2022/04/28 01:37:57;;;;;;;5.18;1.88;;;9.50;99.90;;;;;;5059162;28;20416;-76
2022/04/28 01:40:23;;;;;;;4.15;1.90;;;9.50;99.90;;;;;;5058030;28;20048;-76
2022/04/28 01:42:49;;;;;;;6.28;2.15;;;9.50;99.90;;;;;;5058026;28;20126;-77
2022/04/28 01:45:15;;;;;;;5.05;2.25;;;9.50;99.90;;;;;;5074331;28;20093;-77
2022/04/28 01:47:41;;;;;;;6.45;2.00;;;9.50;99.90;;;;;;5049126;28;20801;-75
2022/04/28 01:50:10;;;;;;;6.13;2.17;;;9.40;99.90;;;;;;5038701;28;20168;-76
2022/04/28 01:55:21;;;;;;;6.15;2.30;;;9.40;99.90;;;;;;5057863;28;20044;-75
2022/04/28 01:57:47;;;;;;;4.45;2.22;;;9.40;99.90;;;;;;5057973;28;20051;-77
2022/04/28 02:00:14;;;;;;;3.40;2.10;;;9.40;99.90;;;;;;5059023;28;20194;-76
2022/04/28 02:02:40;;;;;;;6.00;2.40;;;9.30;99.90;;;;;;5092869;28;20040;-76
2022/04/28 02:05:07;;;;;;;4.93;2.22;;;9.30;99.90;;;;;;5059553;28;20634;-77
2022/04/28 02:07:33;;;;;;;6.18;2.70;;;9.30;99.90;;;;;;5049077;28;20048;-76
2022/04/28 02:09:59;;;;;;;6.65;2.40;;;9.30;99.90;;;;;;5055981;28;20134;-77
2022/04/28 02:12:26;;;;;;;4.53;2.35;;;9.30;99.90;;;;;;5071853;28;20045;-76
2022/04/28 02:14:53;;;;;;;7.72;2.28;;;9.30;99.90;;;;;;5037499;28;20140;-75
2022/04/28 02:17:20;;;;;;;7.47;2.35;;;9.30;99.90;;;;;;5056973;28;20059;-76
2022/04/28 02:19:46;;;;;;;5.10;2.10;;;9.30;99.90;;;;;;5073607;28;20055;-78
2022/04/28 02:22:12;;;;;;;5.00;2.53;;;9.30;99.90;;;;;;5058365;28;20052;-77
2022/04/28 02:24:38;;;;;;;5.75;2.50;;;9.20;99.90;;;;;;5041320;28;20493;-78
2022/04/28 02:27:05;;;;;;;6.63;2.20;;;9.20;99.90;;;;;;5074715;28;20596;-76
2022/04/28 02:29:30;;;;;;;4.88;1.95;;;9.20;99.90;;;;;;5093494;28;20398;-76
2022/04/28 02:31:56;;;;;;;8.07;2.67;;;9.20;99.90;;;;;;5090136;28;20053;-76
2022/04/28 02:34:22;;;;;;;5.85;2.40;;;9.20;99.90;;;;;;5058680;28;20049;-77
2022/04/28 02:36:48;;;;;;;6.28;2.38;;;9.20;99.90;;;;;;5075837;28;20060;-78
2022/04/28 02:39:14;;;;;;;6.65;2.38;;;9.10;99.90;;;;;;5057805;28;20056;-76
2022/04/28 02:41:41;;;;;;;7.15;2.50;;;9.10;99.90;;;;;;5047462;28;20128;-77
2022/04/28 02:44:07;;;;;;;5.57;2.22;;;9.20;99.90;;;;;;5058243;28;20084;-77
2022/04/28 02:46:33;;;;;;;6.20;2.28;;;9.10;99.90;;;;;;5041335;28;20578;-76
2022/04/28 02:48:59;;;;;;;7.90;2.47;;;9.10;99.90;;;;;;5046145;28;20098;-77
2022/04/28 02:51:25;;;;;;;6.45;2.40;;;9.10;99.90;;;;;;5074992;28;20052;-77
2022/04/28 02:53:50;;;;;;;5.40;2.40;;;9.10;99.90;;;;;;5041014;28;20044;-76
2022/04/28 02:56:17;;;;;;;3.90;2.70;;;9.10;99.90;;;;;;5071816;28;20052;-76
2022/04/28 02:58:42;;;;;;;6.28;2.17;;;9.10;99.90;;;;;;5057808;28;20048;-75
2022/04/28 03:01:09;;;;;;;3.53;2.00;;;9.10;99.90;;;;;;5090992;28;20397;-76
2022/04/28 03:03:34;;;;;;;5.40;2.65;;;9.10;99.90;;;;;;5058119;28;20055;-76
2022/04/28 03:11:30;;;;;;;5.63;2.13;;;9.00;99.90;;;;;;5058159;28;20041;-76
2022/04/28 03:13:57;;;;;;;4.20;2.80;;;9.00;99.90;;;;;;5055384;28;20045;-76
2022/04/28 03:16:23;;;;;;;5.68;2.40;;;9.00;99.90;;;;;;5060850;28;20429;-78
2022/04/28 03:18:49;;;;;;;5.07;2.38;;;9.00;99.90;;;;;;5056722;28;20505;-76
2022/04/28 03:21:15;;;;;;;5.50;2.47;;;9.00;99.90;;;;;;5040554;28;20048;-78
2022/04/28 03:23:41;;;;;;;5.05;2.67;;;9.00;99.90;;;;;;5091052;28;20044;-75
2022/04/28 03:26:07;;;;;;;6.10;2.83;;;9.00;99.90;;;;;;5055180;28;20067;-77
2022/04/28 03:28:35;;;;;;;5.78;2.50;;;9.00;99.90;;;;;;5058246;28;20084;-76
2022/04/28 03:31:03;;;;;;;6.60;3.00;;;9.00;99.90;;;;;;5073246;28;20040;-76
2022/04/28 03:33:29;;;;;;;4.60;2.65;;;9.00;99.90;;;;;;5038278;28;20052;-76
2022/04/28 03:35:55;;;;;;;6.15;2.85;;;9.00;99.90;;;;;;5038731;28;20056;-76
2022/04/28 03:38:21;;;;;;;5.53;2.67;;;8.80;99.90;;;;;;5037872;28;20053;-75
2022/04/28 03:40:47;;;;;;;4.60;2.45;;;8.90;99.90;;;;;;5039084;28;20393;-76
2022/04/28 03:43:12;;;;;;;5.28;2.92;;;8.90;99.90;;;;;;5037619;28;20430;-76
2022/04/28 03:45:39;;;;;;;5.68;2.92;;;8.90;99.90;;;;;;5093200;28;20770;-74
2022/04/28 03:48:09;;;;;;;7.28;3.05;;;8.90;99.90;;;;;;5078896;28;20059;-75
2022/04/28 03:50:36;;;;;;;7.05;2.92;;;8.90;99.90;;;;;;5078966;28;20037;-77
2022/04/28 03:53:03;;;;;;;5.07;2.70;;;8.90;99.90;;;;;;5044133;28;20055;-76
2022/04/28 03:55:28;;;;;;;9.25;2.85;;;8.80;99.90;;;;;;5042465;28;20044;-75
2022/04/28 03:57:54;;;;;;;8.18;2.75;;;8.80;99.90;;;;;;5093679;28;20067;-76
2022/04/28 04:00:20;;;;;;;5.45;2.78;;;8.80;99.90;;;;;;5058119;28;20041;-73
2022/04/28 04:02:47;;;;;;;6.38;2.75;;;8.80;99.90;;;;;;5072975;28;20508;-76
2022/04/28 04:05:13;;;;;;;5.25;2.72;;;8.80;99.90;;;;;;5057513;28;20830;-76
2022/04/28 04:07:39;;;;;;;7.75;2.85;;;8.80;99.90;;;;;;5063069;28;20056;-76
2022/04/28 04:10:13;;;;;;;7.28;2.95;;;8.80;99.90;;;;;;5091754;28;20080;-77
2022/04/28 04:12:39;;;;;;;7.22;2.95;;;8.70;99.90;;;;;;5058440;28;20056;-76
2022/04/28 04:15:06;;;;;;;5.00;2.70;;;8.70;99.90;;;;;;5055988;28;20072;-76
2022/04/28 04:17:40;;;;;;;7.75;3.58;;;8.70;99.90;;;;;;5056985;28;20059;-76
2022/04/28 04:20:07;;;;;;;6.45;3.13;;;8.60;99.90;;;;;;5072467;28;20163;-76
2022/04/28 04:22:33;;;;;;;3.97;2.70;;;8.70;99.90;;;;;;5072059;28;20083;-76
2022/04/28 04:24:59;;;;;;;5.90;3.17;;;8.70;99.90;;;;;;5091640;28;20170;-75
2022/04/28 04:27:25;;;;;;;8.05;3.10;;;8.60;99.90;;;;;;5070070;28;20052;-76
2022/04/28 04:29:51;;;;;;;8.00;3.35;;;8.70;99.90;;;;;;5038431;28;20037;-76
2022/04/28 04:32:24;;;;;;;6.00;3.28;;;8.60;99.90;;;;;;5091189;28;20102;-76
2022/04/28 04:34:51;;;;;;;5.03;2.97;;;8.70;99.90;;;;;;5073307;28;20402;-75
2022/04/28 04:37:17;;;;;;;4.35;2.80;;;8.70;99.90;;;;;;5057227;28;20056;-76
2022/04/28 04:39:43;;;;;;;6.32;2.92;;;8.70;99.90;;;;;;5038702;28;20044;-76
2022/04/28 04:42:09;;;;;;;6.22;3.00;;;8.70;99.90;;;;;;5057443;28;20056;-77
2022/04/28 04:44:35;;;;;;;4.72;3.00;;;8.60;99.90;;;;;;5041339;28;20044;-77
2022/04/28 04:47:01;;;;;;;5.95;3.00;;;8.70;99.90;;;;;;5039470;28;20044;-75
2022/04/28 04:49:27;;;;;;;5.47;2.97;;;8.70;99.90;;;;;;5039440;28;20098;-75
2022/04/28 04:51:52;;;;;;;6.57;3.15;;;8.70;99.90;;;;;;5048145;28;20112;-76
2022/04/28 04:54:20;;;;;;;9.23;3.03;;;8.70;99.90;;;;;;5077951;28;20390;-76
2022/04/28 04:56:45;;;;;;;6.57;2.90;;;8.80;99.90;;;;;;5075889;28;20097;-76
2022/04/28 04:59:11;;;;;;;5.80;3.00;;;8.80;99.90;;;;;;5045331;28;20048;-77
2022/04/28 05:01:37;;;;;;;5.57;3.08;;;8.80;99.90;;;;;;5043687;28;20044;-76
2022/04/28 05:04:03;;;;;;;7.15;3.15;;;8.80;99.90;;;;;;5094890;28;20076;-76
2022/04/28 05:06:29;;;;;;;8.13;3.08;;;8.80;99.90;;;;;;5059606;28;20500;-78
2022/04/28 05:08:55;;;;;;;5.28;2.80;;;8.80;99.90;;;;;;5058045;28;20048;-76
2022/04/28 05:11:21;;;;;;;5.95;3.00;;;8.60;99.90;;;;;;5060185;28;20397;-76
2022/04/28 05:13:47;;;;;;;6.88;3.28;;;8.90;99.90;;;;;;5042245;28;20040;-80
2022/04/28 05:16:13;;;;;;;6.03;3.30;;;8.90;99.90;;;;;;5046712;28;20061;-76
2022/04/28 05:18:39;;;;;;;6.35;3.10;;;8.90;99.90;;;;;;5059497;28;20056;-76
2022/04/28 05:21:05;;;;;;;6.32;2.60;;;9.00;99.90;;;;;;5059052;28;20076;-77
2022/04/28 05:23:30;;;;;;;8.50;2.67;;;9.00;99.90;;;;;;5075793;28;20077;-75
2022/04/28 05:25:56;;;;;;;6.30;2.60;;;9.00;99.90;;;;;;5059081;28;20042;-76
2022/04/28 05:28:26;;;;;;;5.05;2.50;;;9.10;99.90;;;;;;5060363;28;20055;-76
2022/04/28 05:30:55;;;;;;;8.20;2.15;;;9.20;99.90;;;;;;5060447;28;20390;-77
2022/04/28 05:33:22;;;;;;;8.07;2.45;;;9.10;99.90;;;;;;5058975;28;20055;-78
2022/04/28 05:35:48;;;;;;;6.75;2.42;;;9.20;99.90;;;;;;5059079;28;20041;-78
2022/04/28 05:38:14;;;;;;;8.82;2.45;;;9.20;99.90;;;;;;5046527;28;20114;-78
2022/04/28 05:40:41;;;;;;;6.05;2.10;;;9.20;99.90;;;;;;5049632;28;20056;-80
2022/04/28 05:45:51;;;;;;;7.45;2.60;;;9.20;99.90;;;;;;5094714;28;20082;-78
2022/04/28 05:48:19;;;;;;;4.78;2.05;;;9.30;99.90;;;;;;5093296;28;20540;-76
2022/04/28 05:50:45;;;;;;;8.07;2.03;;;9.30;99.90;;;;;;5060289;28;20044;-77
2022/04/28 05:53:11;;;;;;;6.63;2.22;;;9.40;99.90;;;;;;5047285;28;20094;-77
2022/04/28 05:55:38;;;;;;;6.47;2.10;;;9.40;99.90;;;;;;5041390;28;20074;-77
2022/04/28 05:58:05;;;;;;;8.00;2.38;;;9.50;99.90;;;;;;5059807;28;20048;-79
2022/04/28 06:00:31;;;;;;;6.75;2.47;;;9.50;99.90;;;;;;5075846;28;20060;-77
2022/04/28 06:02:58;;;;;;;4.65;2.20;;;9.50;99.90;;;;;;5049393;28;20040;-79
2022/04/28 06:05:24;;;;;;;7.50;2.35;;;9.60;99.90;;;;;;5074873;28;20045;-77
2022/04/28 06:07:51;;;;;;;5.68;2.20;;;9.60;99.90;;;;;;5058115;28;20055;-78
2022/04/28 06:10:17;;;;;;;6.40;2.05;;;9.70;99.90;;;;;;5074636;28;20111;-77
2022/04/28 06:12:43;;;;;;;7.90;2.60;;;9.70;99.90;;;;;;5056996;28;20049;-78
2022/04/28 06:15:10;;;;;;;5.47;2.10;;;9.80;99.90;;;;;;5074288;28;20128;-76
2022/04/28 06:17:36;;;;;;;4.63;2.15;;;9.80;99.90;;;;;;5041000;28;20155;-75
2022/04/28 06:20:03;;;;;;;6.57;2.45;;;9.90;99.90;;;;;;5039822;28;20409;-78
2022/04/28 06:22:29;;;;;;;5.60;2.15;;;10.00;99.90;;;;;;5041327;28;20048;-77
2022/04/28 06:24:56;;;;;;;4.45;2.05;;;10.00;99.90;;;;;;5073879;28;20101;-75
2022/04/28 06:27:22;;;;;;;4.15;1.58;;;10.00;99.90;;;;;;5057788;28;20044;-76
2022/04/28 06:29:49;;;;;;;6.28;1.60;;;10.10;99.90;;;;;;5090590;28;20051;-75
2022/04/28 06:32:24;;;;;;;7.40;1.83;;;10.10;99.90;;;;;;5037972;28;20052;-76
2022/04/28 06:34:50;;;;;;;6.72;2.33;;;10.20;99.90;;;;;;5055732;28;20064;-76
2022/04/28 06:37:16;;;;;;;5.40;1.77;;;10.30;99.90;;;;;;5037874;28;20250;-77
2022/04/28 06:39:42;;;;;;;5.05;1.60;;;10.40;99.90;;;;;;5072401;28;20132;-76
2022/04/28 06:42:08;;;;;;;4.65;1.95;;;10.40;99.90;;;;;;5057996;28;20048;-76
2022/04/28 06:44:35;;;;;;;6.55;1.92;;;10.60;99.90;;;;;;5075691;28;20055;-77
2022/04/28 06:47:05;;;;;;;5.63;1.77;;;10.60;99.90;;;;;;5064885;28;20507;-76
2022/04/28 06:49:31;;;;;;;5.72;1.95;;;10.70;99.90;;;;;;5062802;28;20155;-77
2022/04/28 06:51:57;;;;;;;4.35;1.95;;;10.80;99.90;;;;;;5062695;28;20060;-76
2022/04/28 06:54:23;;;;;;;5.18;2.00;;;10.90;99.90;;;;;;5043180;28;20082;-76
2022/04/28 06:56:49;;;;;;;6.95;1.77;;;10.90;99.90;;;;;;5047117;28;20124;-76
2022/04/28 06:59:15;;;;;;;5.97;1.73;;;11.00;99.90;;;;;;5056959;28;20052;-76
2022/04/28 07:01:40;;;;;;;2.92;1.40;;;11.00;99.90;;;;;;5060314;28;20506;-77
2022/04/28 07:04:06;;;;;;;2.80;1.30;;;11.10;99.90;;;;;;5057493;28;20143;-76
2022/04/28 07:06:32;;;;;;;5.82;1.77;;;11.10;99.90;;;;;;5057291;28;20056;-76
2022/04/28 07:08:58;;;;;;;6.75;1.70;;;11.20;99.90;;;;;;5072206;28;20095;-76
2022/04/28 07:11:24;;;;;;;6.88;1.42;;;11.20;99.90;;;;;;5053737;28;20499;-75
2022/04/28 07:13:51;;;;;;;4.38;1.85;;;11.30;99.90;;;;;;5074645;28;20048;-75
2022/04/28 07:16:16;;;;;;;4.63;1.70;;;11.40;99.90;;;;;;5044652;28;20697;-76
2022/04/28 07:18:42;;;;;;;5.13;1.50;;;11.50;99.90;;;;;;5055191;28;20063;-76
2022/04/28 07:21:08;;;;;;;5.18;1.50;;;11.60;99.90;;;;;;5038374;28;20048;-79
2022/04/28 07:23:34;;;;;;;6.22;1.75;;;11.70;99.90;;;;;;5039122;28;20064;-76
2022/04/28 07:25:59;;;;;;;4.10;1.60;;;11.90;99.90;;;;;;5070909;28;20049;-77
2022/04/28 07:28:25;;;;;;;4.78;1.38;;;11.90;99.90;;;;;;5070379;28;20576;-75
2022/04/28 07:30:51;;;;;;;4.85;1.67;;;11.90;99.90;;;;;;5039428;28;20044;-76
2022/04/28 07:33:17;;;;;;;3.53;1.58;;;12.00;99.90;;;;;;5057141;28;20049;-76
2022/04/28 07:35:42;;;;;;;6.07;1.55;;;12.10;99.90;;;;;;5056528;28;20174;-76
2022/04/28 07:38:08;;;;;;;6.82;1.67;;;12.20;99.90;;;;;;5073366;28;20052;-77
2022/04/28 07:40:36;;;;;;;4.53;1.60;;;12.30;99.90;;;;;;5057122;28;20044;-76
2022/04/28 07:43:01;;;;;;;4.82;1.60;;;12.50;99.90;;;;;;5041299;28;20562;-76
2022/04/28 07:45:27;;;;;;;5.30;1.80;;;12.60;99.90;;;;;;5073849;28;20079;-76
2022/04/28 07:47:54;;;;;;;5.15;1.75;;;12.60;99.90;;;;;;5063911;28;20127;-76
2022/04/28 07:50:20;;;;;;;2.70;1.35;;;12.80;99.90;;;;;;5038815;28;20103;-76
2022/04/28 07:52:47;;;;;;;5.25;1.40;;;12.90;99.90;;;;;;5057679;28;20049;-75
2022/04/28 07:55:13;;;;;;;4.22;1.33;;;12.90;99.90;;;;;;5040102;28;20046;-76
2022/04/28 07:57:39;;;;;;;5.30;1.40;;;13.00;99.90;;;;;;5048379;28;20044;-76
2022/04/28 08:00:07;;;;;;;6.07;1.42;;;13.00;99.90;;;;;;5056755;28;20441;-76
2022/04/28 08:02:36;;;;;;;5.20;1.45;;;13.00;99.90;;;;;;5056797;28;20044;-76
2022/04/28 08:05:04;;;;;;;4.95;1.42;;;12.90;99.90;;;;;;5074237;28;20513;-76
2022/04/28 08:07:30;;;;;;;4.00;1.27;;;13.00;99.90;;;;;;5091162;28;20064;-77
2022/04/28 08:09:56;;;;;;;4.68;1.40;;;12.90;99.90;;;;;;5055423;28;20045;-74
2022/04/28 08:12:22;;;;;;;5.55;1.50;;;12.90;99.90;;;;;;5055987;28;20057;-76
2022/04/28 08:14:48;;;;;;;5.35;1.50;;;12.80;99.90;;;;;;5074225;28;20072;-76
2022/04/28 08:17:14;;;;;;;5.25;1.40;;;12.70;99.90;;;;;;5056164;28;20053;-76
2022/04/28 08:19:39;;;;;;;5.00;1.40;;;12.70;99.90;;;;;;5039787;28;20049;-76
2022/04/28 08:22:05;;;;;;;7.68;1.50;;;12.60;99.90;;;;;;5073713;28;20044;-76
2022/04/28 08:24:31;;;;;;;5.30;1.58;;;12.50;99.90;;;;;;5059924;28;20120;-76
2022/04/28 08:26:57;;;;;;;4.55;1.40;;;12.50;99.90;;;;;;5078305;28;20049;-76
2022/04/28 08:29:23;;;;;;;5.55;1.60;;;12.40;99.90;;;;;;5076757;28;20052;-76
2022/04/28 08:31:49;;;;;;;2.45;1.10;;;12.40;99.90;;;;;;5059947;28;20048;-76
2022/04/28 08:34:17;;;;;;;5.15;1.50;;;12.30;99.90;;;;;;5059426;28;20382;-76
2022/04/28 08:36:44;;;;;;;6.30;1.52;;;12.30;99.90;;;;;;5060501;28;20049;-76
2022/04/28 08:39:10;;;;;;;4.47;1.70;;;12.30;99.90;;;;;;5061072;28;20493;-76
2022/04/28 08:41:41;;;;;;;5.40;1.25;;;12.30;99.90;;;;;;5060573;28;20053;-76
2022/04/28 08:44:24;;;;;;;5.05;1.30;;;12.30;99.90;;;;;;5044019;28;20048;-76
2022/04/28 08:46:52;;;;;;;3.83;1.10;;;12.30;99.90;;;;;;5076583;28;20048;-77
2022/04/28 08:49:29;;;;;;;3.40;1.35;;;12.40;99.90;;;;;;5067772;28;20052;-76
2022/04/28 08:51:56;;;;;;;4.80;1.23;;;12.40;99.90;;;;;;5094512;28;20555;-76
2022/04/28 08:54:24;;;;;;;6.90;1.60;;;12.40;99.90;;;;;;5067384;28;20079;-76
2022/04/28 08:56:52;;;;;;;4.80;1.08;;;12.50;99.90;;;;;;5027300;28;20074;-76
2022/04/28 08:59:22;;;;;;;3.40;1.40;;;12.50;99.90;;;;;;5058929;28;20090;-76
2022/04/28 09:01:50;;;;;;;5.28;1.60;;;12.60;99.90;;;;;;5073589;28;20125;-76
2022/04/28 09:04:17;;;;;;;5.03;1.83;;;12.60;99.90;;;;;;5091890;28;20052;-76
2022/04/28 09:06:44;;;;;;;4.72;1.50;;;12.60;99.90;;;;;;5092875;28;20105;-76
2022/04/28 09:09:12;;;;;;;6.15;1.95;;;12.60;99.90;;;;;;5043530;28;20056;-76
2022/04/28 09:11:42;;;;;;;8.07;1.67;;;12.60;99.90;;;;;;5043381;28;20091;-76
2022/04/28 09:14:15;;;;;;;3.17;1.10;;;12.60;99.90;;;;;;5094117;28;20498;-76
2022/04/28 09:16:56;;;;;;;6.22;1.40;;;12.60;99.90;;;;;;5059476;28;20065;-76
2022/04/28 09:19:33;;;;;;;3.72;1.30;;;12.70;99.90;;;;;;5042839;28;20061;-77
2022/04/28 09:22:12;;;;;;;9.73;1.60;;;12.70;99.90;;;;;;5092765;28;20053;-77
2022/04/28 09:24:40;;;;;;;4.03;1.58;;;12.80;99.90;;;;;;5075093;28;20508;-76
2022/04/28 09:27:08;;;;;;;5.47;1.50;;;12.80;99.90;;;;;;5059291;28;20394;-76
2022/04/28 09:29:39;;;;;;;4.05;1.40;;;12.90;99.90;;;;;;5057999;28;20141;-76
2022/04/28 09:32:15;;;;;;;4.45;1.30;;;12.90;99.90;;;;;;5091671;28;20379;-75
2022/04/28 09:34:47;;;;;;;3.92;1.40;;;13.00;99.90;;;;;;5047206;28;20382;-76
2022/04/28 09:37:21;;;;;;;4.97;1.50;;;13.00;99.90;;;;;;5073994;28;20056;-76
2022/04/28 09:42:40;;;;;;;4.85;1.50;;;13.20;99.90;;;;;;5093422;27;20049;-76
2022/04/28 09:45:11;;;;;;;5.63;1.48;;;13.30;99.90;;;;;;5058636;28;20157;-76
2022/04/28 09:47:37;;;;;;;3.92;1.58;;;13.30;99.90;;;;;;5057148;28;20049;-75
2022/04/28 09:50:14;;;;;;;5.10;1.50;;;13.40;99.90;;;;;;5080756;28;20489;-75
2022/04/28 09:52:42;;;;;;;4.43;1.40;;;13.50;99.90;;;;;;5052946;28;20044;-78
2022/04/28 09:55:08;;;;;;;6.20;1.77;;;13.50;99.90;;;;;;5047564;28;20467;-77
2022/04/28 09:57:34;;;;;;;6.55;1.90;;;13.50;99.90;;;;;;5097296;28;20068;-78
2022/04/28 10:00:00;;;;;;;5.40;2.25;;;13.50;99.90;;;;;;5046550;28;20071;-77
2022/04/28 10:02:27;;;;;;;5.25;1.80;;;13.60;99.90;;;;;;5075379;28;20129;-75
2022/04/28 10:04:56;;;;;;;5.85;1.80;;;13.70;99.90;;;;;;5061864;28;20053;-76
2022/04/28 10:07:23;;;;;;;8.82;2.05;;;13.70;99.90;;;;;;5073323;28;20075;-76
2022/04/28 10:09:51;;;;;;;7.22;2.00;;;13.70;99.90;;;;;;5072986;28;20045;-76
2022/04/28 10:12:22;;;;;;;5.43;1.58;;;14.00;99.90;;;;;;5072547;28;20143;-77
2022/04/28 10:14:49;;;;;;;6.00;2.00;;;13.70;99.90;;;;;;5039740;28;20978;-76
2022/04/28 10:17:38;;;;;;;6.75;1.70;;;13.60;99.90;;;;;;5038998;28;20056;-76
2022/04/28 10:20:10;;;;;;;5.53;1.73;;;13.60;99.90;;;;;;5056546;28;20052;-76
2022/04/28 10:22:37;;;;;;;5.68;1.70;;;13.50;99.90;;;;;;5057817;28;20048;-84
2022/04/28 10:33:24;;;;;;;8.25;2.25;;;13.40;99.90;;;;;;5048729;28;20060;-75
2022/04/28 10:35:50;;;;;;;6.75;2.28;;;13.30;99.90;;;;;;5048173;28;20033;-75
2022/04/28 10:38:21;;;;;;;6.53;1.88;;;13.30;99.90;;;;;;5058195;28;20063;-77
2022/04/28 10:41:10;;;;;;;5.30;1.92;;;13.30;99.90;;;;;;5091543;28;20537;-76
2022/04/28 10:43:41;;;;;;;7.38;1.98;;;13.20;99.90;;;;;;5058577;28;20041;-76
2022/04/28 10:46:06;;;;;;;5.30;1.80;;;13.20;99.90;;;;;;5057108;28;20342;-76
2022/04/28 10:49:01;;;;;;;10.35;2.05;;;13.10;99.90;;;;;;5058391;28;20047;-79
2022/04/28 10:51:31;;;;;;;5.97;1.98;;;13.10;99.90;;;;;;5055179;28;20067;-78
2022/04/28 10:54:21;;;;;;;4.63;1.85;;;13.10;99.90;;;;;;5091928;28;20063;-78
2022/04/28 10:57:02;;;;;;;6.97;1.80;;;13.10;99.90;;;;;;5073145;28;20142;-78
2022/04/28 10:59:34;;;;;;;6.10;1.73;;;13.10;99.90;;;;;;5056617;28;20102;-75
2022/04/28 11:02:15;;;;;;;11.20;2.05;;;13.10;99.90;;;;;;5057785;28;20147;-76
2022/04/28 11:04:43;;;;;;;4.82;1.80;;;13.10;99.90;;;;;;5090647;28;20040;-77
2022/04/28 11:07:16;;;;;;;4.90;1.60;;;13.10;99.90;;;;;;5056176;28;20045;-76
2022/04/28 11:09:44;;;;;;;5.47;1.70;;;13.20;99.90;;;;;;5055244;28;20123;-77
2022/04/28 11:12:19;;;;;;;6.68;1.50;;;13.20;99.90;;;;;;5036550;28;20087;-76
2022/04/28 11:14:48;;;;;;;5.55;1.90;;;13.30;99.90;;;;;;5057673;28;20064;-76
2022/04/28 11:17:17;;;;;;;4.18;1.60;;;13.30;99.90;;;;;;5076522;28;20064;-77
2022/04/28 11:19:44;;;;;;;6.35;1.60;;;13.40;99.90;;;;;;5040323;28;20591;-75
2022/04/28 11:22:13;;;;;;;4.20;1.40;;;13.10;99.90;;;;;;5038426;28;20053;-75
2022/04/28 11:24:46;;;;;;;5.47;1.60;;;13.50;99.90;;;;;;5027967;28;20056;-75
2022/04/28 11:27:18;;;;;;;8.68;1.90;;;13.60;99.90;;;;;;5023520;28;20045;-75
2022/04/28 11:29:45;;;;;;;5.78;1.50;;;13.80;99.90;;;;;;5021674;28;20077;-75
2022/04/28 11:32:11;;;;;;;2.85;1.50;;;13.90;99.90;;;;;;5075307;28;20110;-75
2022/04/28 11:34:38;;;;;;;4.88;1.55;;;14.00;99.90;;;;;;5027424;28;20294;-75
2022/04/28 11:37:24;;;;;;;6.85;2.00;;;14.20;99.90;;;;;;5044138;28;20041;-78
2022/04/28 11:39:56;;;;;;;7.40;1.88;;;14.20;99.90;;;;;;5044843;28;20060;-78
2022/04/28 11:42:24;;;;;;;4.35;1.67;;;14.20;99.90;;;;;;5039147;28;20493;-75
2022/04/28 11:44:57;;;;;;;5.60;1.73;;;14.20;99.90;;;;;;5078463;28;20045;-76
2022/04/28 11:47:24;;;;;;;5.68;1.73;;;14.20;99.90;;;;;;5023546;28;20044;-75
2022/04/28 11:49:57;;;;;;;5.57;1.80;;;14.20;99.90;;;;;;5059176;28;20502;-75
2022/04/28 11:52:25;;;;;;;6.45;1.55;;;14.30;99.90;;;;;;5044936;28;20057;-75
2022/04/28 11:55:07;;;;;;;6.82;1.50;;;14.40;99.90;;;;;;5056949;28;20048;-77
2022/04/28 11:57:33;;;;;;;7.15;2.08;;;14.40;99.90;;;;;;5076133;28;20037;-76
2022/04/28 11:59:59;;;;;;;7.28;1.80;;;14.50;99.90;;;;;;5047255;28;20052;-77
2022/04/28 12:02:30;;;;;;;6.00;1.80;;;14.50;99.90;;;;;;5026473;28;20048;-79
2022/04/28 12:04:57;;;;;;;6.15;1.75;;;14.60;99.90;;;;;;5043632;28;20048;-77
2022/04/28 12:07:36;;;;;;;5.15;1.58;;;14.60;99.90;;;;;;5025526;28;20044;-78
2022/04/28 12:15:33;;;;;;;7.20;1.85;;;14.30;99.90;;;;;;5080369;28;20494;-76
2022/04/28 12:21:32;;;;;;;6.40;1.58;;;14.20;99.90;;;;;;5026535;28;20506;-80
2022/04/28 12:24:00;;;;;;;4.75;1.45;;;14.20;99.90;;;;;;5046671;28;20044;-78
2022/04/28 12:26:31;;;;;;;6.57;1.73;;;14.20;99.90;;;;;;5044576;28;20044;-76
2022/04/28 12:29:08;;;;;;;5.90;2.22;;;14.30;99.90;;;;;;5025256;28;20099;-76
2022/04/28 12:31:34;;;;;;;7.72;1.50;;;14.40;99.90;;;;;;5026143;28;20045;-76
2022/04/28 12:34:09;;;;;;;5.07;1.55;;;14.40;99.90;;;;;;5045904;28;20044;-77
2022/04/28 12:37:03;;;;;;;5.87;1.40;;;14.50;99.90;;;;;;5081442;28;20049;-77
2022/04/28 12:39:30;;;;;;;5.80;1.65;;;14.50;99.90;;;;;;5032289;28;20049;-77
2022/04/28 12:41:56;;;;;;;7.35;1.88;;;14.50;99.90;;;;;;5080786;28;20502;-76
2022/04/28 12:44:23;;;;;;;4.47;1.50;;;14.50;99.90;;;;;;5063100;28;20076;-77
2022/04/28 12:46:51;;;;;;;4.07;1.52;;;14.50;99.90;;;;;;5044523;28;20033;-76
2022/04/28 12:49:17;;;;;;;4.25;1.45;;;14.50;99.90;;;;;;5045560;28;20060;-77
2022/04/28 12:51:50;;;;;;;4.88;1.65;;;14.40;99.90;;;;;;5062824;28;20049;-74
2022/04/28 12:54:22;;;;;;;8.13;1.80;;;14.50;99.90;;;;;;5044244;28;20132;-77
2022/04/28 12:57:03;;;;;;;4.50;1.63;;;14.40;99.90;;;;;;5028362;28;20041;-76
2022/04/28 12:59:37;;;;;;;5.57;1.63;;;14.40;99.90;;;;;;5034240;28;20061;-79
2022/04/28 13:02:05;;;;;;;4.57;1.60;;;14.50;99.90;;;;;;5050225;28;20095;-78
2022/04/28 13:04:35;;;;;;;6.28;1.67;;;14.50;99.90;;;;;;5067427;28;20604;-77
2022/04/28 13:07:01;;;;;;;5.70;1.67;;;14.60;99.90;;;;;;5048559;28;20041;-77
2022/04/28 13:09:29;;;;;;;8.45;1.77;;;14.60;99.90;;;;;;5046673;28;20048;-76
2022/04/28 13:11:56;;;;;;;6.50;1.83;;;14.60;99.90;;;;;;5040832;28;20056;-76
2022/04/28 13:14:22;;;;;;;4.88;1.60;;;14.70;99.90;;;;;;5078762;28;20078;-77
2022/04/28 13:16:50;;;;;;;4.30;1.55;;;14.70;99.90;;;;;;5026565;28;20099;-72
2022/04/28 13:19:18;;;;;;;4.88;1.70;;;14.70;99.90;;;;;;5044646;28;20151;-76
2022/04/28 13:21:45;;;;;;;5.28;1.73;;;14.70;99.90;;;;;;5062310;28;20472;-72
2022/04/28 13:24:11;;;;;;;4.88;1.60;;;14.80;99.90;;;;;;5043786;28;20068;-76
2022/04/28 13:26:37;;;;;;;5.20;1.75;;;14.80;99.90;;;;;;5059303;28;20061;-76
2022/04/28 13:29:04;;;;;;;4.10;1.63;;;14.80;99.90;;;;;;5060255;28;20074;-76